sensor_id;sensor_type;location;lat;lon;timestamp;temperature;humidity
16907;DHT22;8570;52.380;4.654;2023-06-10T00:04:27;21.70;94.60
16907;DHT22;8570;52.380;4.654;2023-06-10T00:09:29;21.70;94.70
16907;DHT22;8570;52.380;4.654;2023-06-10T00:14:32;21.60;94.70
16907;DHT22;8570;52.380;4.654;2023-06-10T00:19:35;21.50;94.60
16907;DHT22;8570;52.380;4.654;2023-06-10T00:24:38;21.50;94.60
16907;DHT22;8570;52.380;4.654;2023-06-10T00:29:40;21.40;94.60
16907;DHT22;8570;52.380;4.654;2023-06-10T00:34:43;21.40;94.70
16907;DHT22;8570;52.380;4.654;2023-06-10T00:39:45;21.30;94.50
16907;DHT22;8570;52.380;4.654;2023-06-10T00:44:47;21.30;94.60
16907;DHT22;8570;52.380;4.654;2023-06-10T00:49:51;21.20;94.70
16907;DHT22;8570;52.380;4.654;2023-06-10T00:54:53;21.20;94.70
16907;DHT22;8570;52.380;4.654;2023-06-10T00:59:55;21.10;94.50
16907;DHT22;8570;52.380;4.654;2023-06-10T01:05:02;21.00;94.60
16907;DHT22;8570;52.380;4.654;2023-06-10T01:10:11;21.00;94.70
16907;DHT22;8570;52.380;4.654;2023-06-10T01:15:15;20.90;94.80
16907;DHT22;8570;52.380;4.654;2023-06-10T01:20:18;20.90;94.80
16907;DHT22;8570;52.380;4.654;2023-06-10T01:25:21;20.80;94.80
16907;DHT22;8570;52.380;4.654;2023-06-10T01:30:32;20.70;94.80
16907;DHT22;8570;52.380;4.654;2023-06-10T01:35:39;20.70;94.80
16907;DHT22;8570;52.380;4.654;2023-06-10T01:40:43;20.60;94.70
16907;DHT22;8570;52.380;4.654;2023-06-10T01:45:45;20.50;94.70
16907;DHT22;8570;52.380;4.654;2023-06-10T01:50:47;20.50;94.70
16907;DHT22;8570;52.380;4.654;2023-06-10T01:55:50;20.40;94.70
16907;DHT22;8570;52.380;4.654;2023-06-10T02:00:52;20.30;94.80
16907;DHT22;8570;52.380;4.654;2023-06-10T02:05:57;20.30;94.90
16907;DHT22;8570;52.380;4.654;2023-06-10T02:11:00;20.20;94.90
16907;DHT22;8570;52.380;4.654;2023-06-10T02:16:02;20.10;95.10
16907;DHT22;8570;52.380;4.654;2023-06-10T02:21:04;20.10;95.10
16907;DHT22;8570;52.380;4.654;2023-06-10T02:26:07;20.10;95.50
16907;DHT22;8570;52.380;4.654;2023-06-10T02:31:09;20.00;95.20
16907;DHT22;8570;52.380;4.654;2023-06-10T02:36:11;20.00;95.30
16907;DHT22;8570;52.380;4.654;2023-06-10T02:41:15;19.90;95.30
16907;DHT22;8570;52.380;4.654;2023-06-10T02:46:19;19.90;95.30
16907;DHT22;8570;52.380;4.654;2023-06-10T02:51:21;19.80;95.30
16907;DHT22;8570;52.380;4.654;2023-06-10T02:56:24;19.80;95.30
16907;DHT22;8570;52.380;4.654;2023-06-10T03:01:27;19.70;95.40
16907;DHT22;8570;52.380;4.654;2023-06-10T03:06:35;19.70;95.50
16907;DHT22;8570;52.380;4.654;2023-06-10T03:11:40;19.60;95.50
16907;DHT22;8570;52.380;4.654;2023-06-10T03:16:42;19.60;95.60
16907;DHT22;8570;52.380;4.654;2023-06-10T03:21:45;19.50;95.80
16907;DHT22;8570;52.380;4.654;2023-06-10T03:26:48;19.50;95.80
16907;DHT22;8570;52.380;4.654;2023-06-10T03:31:50;19.40;95.80
16907;DHT22;8570;52.380;4.654;2023-06-10T03:36:52;19.40;95.80
16907;DHT22;8570;52.380;4.654;2023-06-10T03:41:55;19.40;96.10
16907;DHT22;8570;52.380;4.654;2023-06-10T03:46:57;19.30;96.20
16907;DHT22;8570;52.380;4.654;2023-06-10T03:52:00;19.30;96.30
16907;DHT22;8570;52.380;4.654;2023-06-10T03:57:04;19.20;96.30
16907;DHT22;8570;52.380;4.654;2023-06-10T04:02:06;19.20;96.40
16907;DHT22;8570;52.380;4.654;2023-06-10T04:07:09;19.20;96.50
16907;DHT22;8570;52.380;4.654;2023-06-10T04:12:13;19.10;96.60
16907;DHT22;8570;52.380;4.654;2023-06-10T04:17:15;19.10;96.60
16907;DHT22;8570;52.380;4.654;2023-06-10T04:22:17;19.10;96.80
16907;DHT22;8570;52.380;4.654;2023-06-10T04:27:20;19.10;96.90
16907;DHT22;8570;52.380;4.654;2023-06-10T04:32:22;19.10;97.00
16907;DHT22;8570;52.380;4.654;2023-06-10T04:37:24;19.10;97.10
16907;DHT22;8570;52.380;4.654;2023-06-10T04:42:28;19.10;97.10
16907;DHT22;8570;52.380;4.654;2023-06-10T04:47:30;19.10;97.20
16907;DHT22;8570;52.380;4.654;2023-06-10T04:52:33;19.10;97.40
16907;DHT22;8570;52.380;4.654;2023-06-10T04:57:36;19.10;97.40
16907;DHT22;8570;52.380;4.654;2023-06-10T05:02:38;19.10;97.30
16907;DHT22;8570;52.380;4.654;2023-06-10T05:07:40;19.10;97.40
16907;DHT22;8570;52.380;4.654;2023-06-10T05:12:45;19.20;97.80
16907;DHT22;8570;52.380;4.654;2023-06-10T05:17:47;19.20;97.60
16907;DHT22;8570;52.380;4.654;2023-06-10T05:22:49;19.20;97.60
16907;DHT22;8570;52.380;4.654;2023-06-10T05:27:52;19.30;97.70
16907;DHT22;8570;52.380;4.654;2023-06-10T05:32:54;19.30;97.80
16907;DHT22;8570;52.380;4.654;2023-06-10T05:37:57;19.30;97.80
16907;DHT22;8570;52.380;4.654;2023-06-10T05:43:00;19.40;97.90
16907;DHT22;8570;52.380;4.654;2023-06-10T05:48:02;19.40;98.00
16907;DHT22;8570;52.380;4.654;2023-06-10T05:53:04;19.40;98.00
16907;DHT22;8570;52.380;4.654;2023-06-10T05:58:08;19.50;98.10
16907;DHT22;8570;52.380;4.654;2023-06-10T06:03:11;19.50;98.10
16907;DHT22;8570;52.380;4.654;2023-06-10T06:08:13;19.60;98.20
16907;DHT22;8570;52.380;4.654;2023-06-10T06:13:20;19.70;98.20
16907;DHT22;8570;52.380;4.654;2023-06-10T06:18:22;19.70;98.30
16907;DHT22;8570;52.380;4.654;2023-06-10T06:23:24;19.80;98.30
16907;DHT22;8570;52.380;4.654;2023-06-10T06:28:27;19.80;98.30
16907;DHT22;8570;52.380;4.654;2023-06-10T06:33:29;19.90;98.20
16907;DHT22;8570;52.380;4.654;2023-06-10T06:38:31;20.00;98.20
16907;DHT22;8570;52.380;4.654;2023-06-10T06:43:34;20.10;98.20
16907;DHT22;8570;52.380;4.654;2023-06-10T06:48:36;20.20;98.20
16907;DHT22;8570;52.380;4.654;2023-06-10T06:53:41;20.30;98.20
16907;DHT22;8570;52.380;4.654;2023-06-10T06:58:47;20.40;98.10
16907;DHT22;8570;52.380;4.654;2023-06-10T07:03:49;20.50;98.10
16907;DHT22;8570;52.380;4.654;2023-06-10T07:08:51;20.60;98.00
16907;DHT22;8570;52.380;4.654;2023-06-10T07:13:54;20.80;98.10
16907;DHT22;8570;52.380;4.654;2023-06-10T07:18:56;20.90;98.00
16907;DHT22;8570;52.380;4.654;2023-06-10T07:23:58;21.00;98.00
16907;DHT22;8570;52.380;4.654;2023-06-10T07:29:01;21.20;98.10
16907;DHT22;8570;52.380;4.654;2023-06-10T07:34:03;21.30;98.00
16907;DHT22;8570;52.380;4.654;2023-06-10T07:39:05;21.40;97.70
16907;DHT22;8570;52.380;4.654;2023-06-10T07:44:09;21.60;97.70
16907;DHT22;8570;52.380;4.654;2023-06-10T07:49:11;21.70;97.60
16907;DHT22;8570;52.380;4.654;2023-06-10T07:54:13;21.80;97.70
16907;DHT22;8570;52.380;4.654;2023-06-10T07:59:16;22.00;97.80
16907;DHT22;8570;52.380;4.654;2023-06-10T08:04:18;22.20;98.00
16907;DHT22;8570;52.380;4.654;2023-06-10T08:09:20;22.50;98.00
16907;DHT22;8570;52.380;4.654;2023-06-10T08:14:25;22.80;97.70
16907;DHT22;8570;52.380;4.654;2023-06-10T08:19:27;23.20;97.70
16907;DHT22;8570;52.380;4.654;2023-06-10T08:24:28;23.60;97.40
16907;DHT22;8570;52.380;4.654;2023-06-10T08:29:32;24.00;96.80
16907;DHT22;8570;52.380;4.654;2023-06-10T08:34:34;24.40;96.40
16907;DHT22;8570;52.380;4.654;2023-06-10T08:39:37;24.90;95.90
16907;DHT22;8570;52.380;4.654;2023-06-10T08:44:40;25.30;97.50
16907;DHT22;8570;52.380;4.654;2023-06-10T08:49:45;25.70;96.60
16907;DHT22;8570;52.380;4.654;2023-06-10T08:54:52;26.10;96.30
16907;DHT22;8570;52.380;4.654;2023-06-10T08:59:59;26.50;95.20
16907;DHT22;8570;52.380;4.654;2023-06-10T09:05:02;26.80;95.30
16907;DHT22;8570;52.380;4.654;2023-06-10T09:10:05;27.20;94.30
16907;DHT22;8570;52.380;4.654;2023-06-10T09:15:10;27.60;93.60
16907;DHT22;8570;52.380;4.654;2023-06-10T09:20:17;28.00;93.10
16907;DHT22;8570;52.380;4.654;2023-06-10T09:25:34;28.30;93.20
16907;DHT22;8570;52.380;4.654;2023-06-10T09:30:39;28.70;92.00
16907;DHT22;8570;52.380;4.654;2023-06-10T09:35:46;28.90;91.60
16907;DHT22;8570;52.380;4.654;2023-06-10T09:40:51;29.00;91.40
16907;DHT22;8570;52.380;4.654;2023-06-10T09:45:57;29.30;90.40
16907;DHT22;8570;52.380;4.654;2023-06-10T09:51:00;29.40;89.70
16907;DHT22;8570;52.380;4.654;2023-06-10T09:56:04;29.60;89.30
16907;DHT22;8570;52.380;4.654;2023-06-10T10:01:08;29.70;88.00
16907;DHT22;8570;52.380;4.654;2023-06-10T10:06:11;29.80;88.00
16907;DHT22;8570;52.380;4.654;2023-06-10T10:11:14;30.00;87.30
16907;DHT22;8570;52.380;4.654;2023-06-10T10:16:21;30.10;87.40
16907;DHT22;8570;52.380;4.654;2023-06-10T10:21:27;30.20;87.60
16907;DHT22;8570;52.380;4.654;2023-06-10T10:26:33;30.30;86.00
16907;DHT22;8570;52.380;4.654;2023-06-10T10:31:39;30.50;85.30
16907;DHT22;8570;52.380;4.654;2023-06-10T10:36:45;30.60;84.40
16907;DHT22;8570;52.380;4.654;2023-06-10T10:41:49;30.70;84.40
16907;DHT22;8570;52.380;4.654;2023-06-10T10:46:53;30.90;83.20
16907;DHT22;8570;52.380;4.654;2023-06-10T10:51:56;31.00;83.20
16907;DHT22;8570;52.380;4.654;2023-06-10T10:57:12;31.10;81.60
16907;DHT22;8570;52.380;4.654;2023-06-10T11:02:17;31.10;82.00
16907;DHT22;8570;52.380;4.654;2023-06-10T11:07:20;31.30;81.80
16907;DHT22;8570;52.380;4.654;2023-06-10T11:12:40;31.40;79.80
16907;DHT22;8570;52.380;4.654;2023-06-10T11:18:12;31.40;80.00
16907;DHT22;8570;52.380;4.654;2023-06-10T11:23:34;31.50;80.10
16907;DHT22;8570;52.380;4.654;2023-06-10T11:28:39;31.60;80.40
16907;DHT22;8570;52.380;4.654;2023-06-10T11:33:43;31.70;79.00
16907;DHT22;8570;52.380;4.654;2023-06-10T11:38:45;31.80;78.60
16907;DHT22;8570;52.380;4.654;2023-06-10T11:43:47;31.80;78.80
16907;DHT22;8570;52.380;4.654;2023-06-10T11:48:51;31.90;78.50
16907;DHT22;8570;52.380;4.654;2023-06-10T11:54:00;32.00;77.60
16907;DHT22;8570;52.380;4.654;2023-06-10T11:59:03;32.00;76.20
16907;DHT22;8570;52.380;4.654;2023-06-10T12:04:10;32.20;76.90
16907;DHT22;8570;52.380;4.654;2023-06-10T12:09:14;32.20;76.30
16907;DHT22;8570;52.380;4.654;2023-06-10T12:14:53;32.40;75.70
16907;DHT22;8570;52.380;4.654;2023-06-10T12:19:57;32.50;75.70
16907;DHT22;8570;52.380;4.654;2023-06-10T12:25:00;32.60;74.50
16907;DHT22;8570;52.380;4.654;2023-06-10T12:30:04;32.70;73.70
16907;DHT22;8570;52.380;4.654;2023-06-10T12:35:09;32.80;72.40
16907;DHT22;8570;52.380;4.654;2023-06-10T12:40:13;32.80;71.50
16907;DHT22;8570;52.380;4.654;2023-06-10T12:45:14;32.80;72.00
16907;DHT22;8570;52.380;4.654;2023-06-10T12:50:30;32.90;71.50
16907;DHT22;8570;52.380;4.654;2023-06-10T12:55:32;32.90;72.20
16907;DHT22;8570;52.380;4.654;2023-06-10T13:00:34;33.10;72.30
16907;DHT22;8570;52.380;4.654;2023-06-10T13:05:38;33.30;71.30
16907;DHT22;8570;52.380;4.654;2023-06-10T13:10:40;33.30;69.80
16907;DHT22;8570;52.380;4.654;2023-06-10T13:15:42;33.30;70.30
16907;DHT22;8570;52.380;4.654;2023-06-10T13:20:48;33.40;69.70
16907;DHT22;8570;52.380;4.654;2023-06-10T13:25:54;33.40;69.90
16907;DHT22;8570;52.380;4.654;2023-06-10T13:30:56;33.50;69.90
16907;DHT22;8570;52.380;4.654;2023-06-10T13:35:59;33.50;69.70
16907;DHT22;8570;52.380;4.654;2023-06-10T13:41:01;33.50;68.70
16907;DHT22;8570;52.380;4.654;2023-06-10T13:46:03;33.50;67.60
16907;DHT22;8570;52.380;4.654;2023-06-10T13:51:06;33.60;69.00
16907;DHT22;8570;52.380;4.654;2023-06-10T13:56:09;33.70;67.90
16907;DHT22;8570;52.380;4.654;2023-06-10T14:01:12;33.80;67.20
16907;DHT22;8570;52.380;4.654;2023-06-10T14:06:15;33.70;66.90
16907;DHT22;8570;52.380;4.654;2023-06-10T14:11:18;33.80;66.40
16907;DHT22;8570;52.380;4.654;2023-06-10T14:16:21;33.70;65.90
16907;DHT22;8570;52.380;4.654;2023-06-10T14:21:24;33.70;65.10
16907;DHT22;8570;52.380;4.654;2023-06-10T14:26:26;33.60;65.20
16907;DHT22;8570;52.380;4.654;2023-06-10T14:31:29;33.60;65.20
16907;DHT22;8570;52.380;4.654;2023-06-10T14:36:32;33.60;64.40
16907;DHT22;8570;52.380;4.654;2023-06-10T14:41:34;33.50;63.60
16907;DHT22;8570;52.380;4.654;2023-06-10T14:46:36;33.40;63.30
16907;DHT22;8570;52.380;4.654;2023-06-10T14:51:39;33.50;63.70
16907;DHT22;8570;52.380;4.654;2023-06-10T14:56:41;33.40;62.00
16907;DHT22;8570;52.380;4.654;2023-06-10T15:01:43;33.40;62.40
16907;DHT22;8570;52.380;4.654;2023-06-10T15:06:46;33.30;62.20
16907;DHT22;8570;52.380;4.654;2023-06-10T15:11:49;33.30;60.60
16907;DHT22;8570;52.380;4.654;2023-06-10T15:16:51;33.20;59.70
16907;DHT22;8570;52.380;4.654;2023-06-10T15:21:54;33.10;59.40
16907;DHT22;8570;52.380;4.654;2023-06-10T15:26:57;33.10;58.40
16907;DHT22;8570;52.380;4.654;2023-06-10T15:31:58;33.10;58.40
16907;DHT22;8570;52.380;4.654;2023-06-10T15:37:02;33.00;58.80
16907;DHT22;8570;52.380;4.654;2023-06-10T15:42:04;33.00;58.40
16907;DHT22;8570;52.380;4.654;2023-06-10T15:47:06;33.00;57.60
16907;DHT22;8570;52.380;4.654;2023-06-10T15:52:13;32.80;57.60
16907;DHT22;8570;52.380;4.654;2023-06-10T15:57:15;32.80;57.10
16907;DHT22;8570;52.380;4.654;2023-06-10T16:02:17;32.60;57.50
16907;DHT22;8570;52.380;4.654;2023-06-10T16:07:20;32.50;56.80
16907;DHT22;8570;52.380;4.654;2023-06-10T16:12:22;32.40;57.10
16907;DHT22;8570;52.380;4.654;2023-06-10T16:17:24;32.40;57.00
16907;DHT22;8570;52.380;4.654;2023-06-10T16:22:27;32.30;56.60
16907;DHT22;8570;52.380;4.654;2023-06-10T16:27:29;32.30;56.30
16907;DHT22;8570;52.380;4.654;2023-06-10T16:32:31;32.10;55.50
16907;DHT22;8570;52.380;4.654;2023-06-10T16:37:35;31.90;55.10
16907;DHT22;8570;52.380;4.654;2023-06-10T16:42:41;31.70;54.90
16907;DHT22;8570;52.380;4.654;2023-06-10T16:47:43;31.40;55.00
16907;DHT22;8570;52.380;4.654;2023-06-10T16:52:48;31.20;54.70
16907;DHT22;8570;52.380;4.654;2023-06-10T16:57:50;31.10;55.20
16907;DHT22;8570;52.380;4.654;2023-06-10T17:02:53;30.90;54.70
16907;DHT22;8570;52.380;4.654;2023-06-10T17:07:59;30.70;54.50
16907;DHT22;8570;52.380;4.654;2023-06-10T17:13:01;30.50;53.40
16907;DHT22;8570;52.380;4.654;2023-06-10T17:18:03;30.30;53.90
16907;DHT22;8570;52.380;4.654;2023-06-10T17:23:10;30.10;54.50
16907;DHT22;8570;52.380;4.654;2023-06-10T17:28:13;29.90;54.00
16907;DHT22;8570;52.380;4.654;2023-06-10T17:33:15;29.70;54.40
16907;DHT22;8570;52.380;4.654;2023-06-10T17:38:18;29.60;54.90
16907;DHT22;8570;52.380;4.654;2023-06-10T17:43:22;29.50;55.10
16907;DHT22;8570;52.380;4.654;2023-06-10T17:48:25;29.40;55.40
16907;DHT22;8570;52.380;4.654;2023-06-10T17:53:28;29.30;56.10
16907;DHT22;8570;52.380;4.654;2023-06-10T17:58:30;29.20;56.30
16907;DHT22;8570;52.380;4.654;2023-06-10T18:03:33;29.00;56.50
16907;DHT22;8570;52.380;4.654;2023-06-10T18:08:41;28.90;56.60
16907;DHT22;8570;52.380;4.654;2023-06-10T18:13:43;28.80;57.20
16907;DHT22;8570;52.380;4.654;2023-06-10T18:18:45;28.60;57.70
16907;DHT22;8570;52.380;4.654;2023-06-10T18:23:49;28.60;58.10
16907;DHT22;8570;52.380;4.654;2023-06-10T18:28:51;28.40;58.40
16907;DHT22;8570;52.380;4.654;2023-06-10T18:33:53;28.30;59.10
16907;DHT22;8570;52.380;4.654;2023-06-10T18:38:56;28.20;59.50
16907;DHT22;8570;52.380;4.654;2023-06-10T18:43:59;28.10;60.00
16907;DHT22;8570;52.380;4.654;2023-06-10T18:49:01;28.00;60.60
16907;DHT22;8570;52.380;4.654;2023-06-10T18:54:08;27.80;61.40
16907;DHT22;8570;52.380;4.654;2023-06-10T18:59:10;27.70;62.80
16907;DHT22;8570;52.380;4.654;2023-06-10T19:04:12;27.60;64.20
16907;DHT22;8570;52.380;4.654;2023-06-10T19:09:15;27.40;66.30
16907;DHT22;8570;52.380;4.654;2023-06-10T19:14:19;27.30;67.90
16907;DHT22;8570;52.380;4.654;2023-06-10T19:19:21;27.10;69.80
16907;DHT22;8570;52.380;4.654;2023-06-10T19:24:24;27.00;72.00
16907;DHT22;8570;52.380;4.654;2023-06-10T19:29:26;26.90;73.70
16907;DHT22;8570;52.380;4.654;2023-06-10T19:34:28;26.70;74.90
16907;DHT22;8570;52.380;4.654;2023-06-10T19:39:31;26.60;75.90
16907;DHT22;8570;52.380;4.654;2023-06-10T19:44:33;26.50;76.80
16907;DHT22;8570;52.380;4.654;2023-06-10T19:49:35;26.40;77.80
16907;DHT22;8570;52.380;4.654;2023-06-10T19:54:38;26.30;79.90
16907;DHT22;8570;52.380;4.654;2023-06-10T19:59:40;26.20;81.70
16907;DHT22;8570;52.380;4.654;2023-06-10T20:04:42;26.10;83.10
16907;DHT22;8570;52.380;4.654;2023-06-10T20:09:45;26.00;84.10
16907;DHT22;8570;52.380;4.654;2023-06-10T20:14:47;25.80;85.40
16907;DHT22;8570;52.380;4.654;2023-06-10T20:19:49;25.70;87.00
16907;DHT22;8570;52.380;4.654;2023-06-10T20:24:54;25.50;87.70
16907;DHT22;8570;52.380;4.654;2023-06-10T20:29:56;25.40;89.50
16907;DHT22;8570;52.380;4.654;2023-06-10T20:34:58;25.30;90.20
16907;DHT22;8570;52.380;4.654;2023-06-10T20:40:01;25.20;90.60
16907;DHT22;8570;52.380;4.654;2023-06-10T20:45:05;25.10;90.80
16907;DHT22;8570;52.380;4.654;2023-06-10T20:50:08;24.90;91.10
16907;DHT22;8570;52.380;4.654;2023-06-10T20:55:11;24.90;91.70
16907;DHT22;8570;52.380;4.654;2023-06-10T21:00:14;24.80;92.00
16907;DHT22;8570;52.380;4.654;2023-06-10T21:05:16;24.60;92.50
16907;DHT22;8570;52.380;4.654;2023-06-10T21:10:19;24.60;92.90
16907;DHT22;8570;52.380;4.654;2023-06-10T21:15:21;24.40;93.40
16907;DHT22;8570;52.380;4.654;2023-06-10T21:20:23;24.40;93.40
16907;DHT22;8570;52.380;4.654;2023-06-10T21:25:26;24.20;93.90
16907;DHT22;8570;52.380;4.654;2023-06-10T21:30:28;24.20;94.30
16907;DHT22;8570;52.380;4.654;2023-06-10T21:35:30;24.00;94.30
16907;DHT22;8570;52.380;4.654;2023-06-10T21:40:34;23.90;94.40
16907;DHT22;8570;52.380;4.654;2023-06-10T21:45:35;23.80;94.60
16907;DHT22;8570;52.380;4.654;2023-06-10T21:50:37;23.80;94.70
16907;DHT22;8570;52.380;4.654;2023-06-10T21:55:40;23.70;94.80
16907;DHT22;8570;52.380;4.654;2023-06-10T22:00:42;23.60;94.90
16907;DHT22;8570;52.380;4.654;2023-06-10T22:05:45;23.50;95.00
16907;DHT22;8570;52.380;4.654;2023-06-10T22:10:48;23.40;95.00
16907;DHT22;8570;52.380;4.654;2023-06-10T22:15:50;23.30;94.90
16907;DHT22;8570;52.380;4.654;2023-06-10T22:20:52;23.20;94.90
16907;DHT22;8570;52.380;4.654;2023-06-10T22:25:55;23.20;95.10
16907;DHT22;8570;52.380;4.654;2023-06-10T22:30:57;23.10;95.20
16907;DHT22;8570;52.380;4.654;2023-06-10T22:35:58;23.00;95.20
16907;DHT22;8570;52.380;4.654;2023-06-10T22:41:02;22.90;95.10
16907;DHT22;8570;52.380;4.654;2023-06-10T22:46:04;22.80;95.20
16907;DHT22;8570;52.380;4.654;2023-06-10T22:51:06;22.70;95.20
16907;DHT22;8570;52.380;4.654;2023-06-10T22:56:10;22.70;95.20
16907;DHT22;8570;52.380;4.654;2023-06-10T23:01:11;22.60;95.20
16907;DHT22;8570;52.380;4.654;2023-06-10T23:06:13;22.50;95.30
16907;DHT22;8570;52.380;4.654;2023-06-10T23:11:17;22.40;95.40
16907;DHT22;8570;52.380;4.654;2023-06-10T23:16:19;22.40;95.50
16907;DHT22;8570;52.380;4.654;2023-06-10T23:21:21;22.30;95.60
16907;DHT22;8570;52.380;4.654;2023-06-10T23:26:24;22.20;95.80
16907;DHT22;8570;52.380;4.654;2023-06-10T23:31:27;22.10;96.00
16907;DHT22;8570;52.380;4.654;2023-06-10T23:36:29;22.10;96.30
16907;DHT22;8570;52.380;4.654;2023-06-10T23:41:33;22.00;96.30
16907;DHT22;8570;52.380;4.654;2023-06-10T23:46:39;21.90;96.60
16907;DHT22;8570;52.380;4.654;2023-06-10T23:51:44;21.90;96.80
16907;DHT22;8570;52.380;4.654;2023-06-10T23:56:50;21.80;97.00
